This is the latest recevied weather packets stored in our database for station/object AH6GR. If no packets are shown the sender has not sent any weather packets the latest 10 day(s).
| Time | Temp. | Humidity | Pressure | Rain* | Wind** | Luminosity | Snow |
|---|---|---|---|---|---|---|---|
| 1778187637 | 25° C | 78% | 1018.9 hPa | 0 mm | - | - | - |
| 1778187603 | 24.44° C | 78% | 1017.9 hPa | 0 mm | - | - | - |
| 1778187037 | 24.44° C | 80% | 1018.9 hPa | 0 mm | - | - | - |
| 1778186745 | 24.44° C | 80% | 1017.9 hPa | 0 mm | - | - | - |
| 1778186437 | 24.44° C | 79% | 1018.9 hPa | 0 mm | - | - | - |
| 1778185836 | 24.44° C | 80% | 1019 hPa | 0 mm | - | - | - |
| 1778185826 | 24.44° C | 80% | 1018 hPa | 0 mm | - | - | - |
| 1778185236 | 24.44° C | 79% | 1019 hPa | 0 mm | - | - | - |
| 1778184907 | 24.44° C | 82% | 1017.9 hPa | 0 mm | - | - | - |
| 1778184636 | 24.44° C | 80% | 1019.1 hPa | 0 mm | - | - | - |
| 1778184045 | 23.33° C | 84% | 1018.1 hPa | 0 mm | - | - | - |
| 1778184037 | 23.89° C | 83% | 1019.1 hPa | 0 mm | - | - | - |
| 1778183436 | 23.89° C | 84% | 1019.1 hPa | 0 mm | - | - | - |
| 1778183120 | 23.33° C | 85% | 1018 hPa | 0 mm | - | - | - |
| 1778182836 | 23.33° C | 85% | 1019.1 hPa | 0 mm | - | - | - |
| 1778182269 | 22.78° C | 85% | 1018.1 hPa | 0.25 mm | - | - | - |
| 1778182237 | 23.33° C | 86% | 1019.1 hPa | 0.25 mm | - | - | - |
| 1778181637 | 22.78° C | 86% | 1019 hPa | 0.25 mm | - | - | - |
| 1778181345 | 22.78° C | 87% | 1018.1 hPa | 0.25 mm | - | - | - |
| 1778181036 | 22.78° C | 87% | 1019 hPa | 0.25 mm | - | - | - |
| 1778180436 | 22.22° C | 90% | 1018.8 hPa | 0.25 mm | - | - | - |
| 1778180417 | 22.22° C | 90% | 1017.9 hPa | 0.25 mm | - | - | - |
| 1778179836 | 22.22° C | 89% | 1018.8 hPa | 0.25 mm | - | - | - |
| 1778179561 | 21.67° C | 88% | 1017.9 hPa | 0.25 mm | - | - | - |
| 1778179236 | 22.22° C | 88% | 1018.7 hPa | 0.25 mm | - | - | - |
* Rain latest hour (hover to see other rain measurements)
** Current wind speed in m/s (hover to see current wind gust speed)